HOURLY OBS INDEX

059

Mid North Coast

COFFS HARBOUR AIRPORT

Site: 059151
Alt: 3.5m
km of


  Time     Wind        Temp  DP   Baro     Rain since   Rain past  Vis(m), Cloud(base in m), Weather
  local        km/h                         9am  last   hr   10m    
Sat 12:00    E 17/ 22  20.8 12.8  1026.8    0.0   0.0   0.0   0.0   10000 
Sat 12:00    E 17/ 22  20.8 12.8  1026.8    0.0   0.0  ----   0.0   10000 
Sat 12:30    E 20/ 26  21.3 13.2  1026.1    0.0   0.0   0.0   0.0   10000 
Sat 13:00    E 20/ 26  21.7 13.9  1025.8    0.0   0.0   0.0   0.0   10000 
Sat 13:00    E 20/ 26  21.7 13.9  1025.8    0.0   0.0  ----   0.0   10000 
Sat 13:30    E 20/ 26  21.2 13.1  1025.4    0.0   0.0   0.0   0.0   10000 
Sat 14:00    E 19/ 26  21.2 12.1  1025.0    0.0   0.0   0.0   0.0   10000 
Sat 14:30    E 19/ 24  21.0 12.7  1024.8    0.0   0.0   0.0   0.0   10000 
Sat 15:00  ENE 17/ 20  20.0 12.5  1024.7    0.0   0.0   0.0   0.0   10000 
Sat 15:30   NE 17/ 22  20.4 12.9  1024.5    0.0   0.0   0.0   0.0   10000 
Sat 16:00   NE 17/ 26  20.0 13.2  1024.3    0.0   0.0   0.0   0.0   10000 
Sat 16:30   NE 17/ 24  19.9 12.2  1024.5    0.0   0.0   0.0   0.0   10000 
Sat 17:00   NE 17/ 22  19.3 11.6  1024.7    0.0   0.0   0.0   0.0   10000 
Sat 17:00   NE 17/ 22  19.3 11.6  1024.7    0.0   0.0  ----   0.0   10000 

KEMPSEY AIRPORT AWS

Site: 059007
Alt: 13.0m
6km WNW of KEMPSEY


  Time     Wind        Temp  DP   Baro     Rain since   Rain past  Vis(m), Cloud(base in m), Weather
  local        km/h                         9am  last   hr   10m    
Sat 12:00  ENE 13/ 20  22.8  9.2  1025.8    0.0   0.0   0.0   0.0   ----- 
Sat 12:00  ENE 13/ 20  22.8  9.2  1025.8    0.0   0.0  ----   0.0   ----- 
Sat 12:30    E 20/ 30  23.9 11.3  1025.2    0.0   0.0   0.0   0.0   ----- 
Sat 13:00   NE 19/ 26  23.1  9.8  1024.8    0.0   0.0   0.0   0.0   ----- 
Sat 13:00   NE 19/ 26  23.1  9.8  1024.8    0.0   0.0  ----   0.0   ----- 
Sat 13:30    E 22/ 30  22.4 10.2  1024.4    0.0   0.0   0.0   0.0   ----- 
Sat 14:00    E 20/ 32  22.0  9.9  1024.0    0.0   0.0   0.0   0.0   ----- 
Sat 14:30    E 20/ 33  21.9  9.8  1023.7    0.0   0.0   0.0   0.0   ----- 
Sat 15:00  ENE 20/ 30  21.4  9.9  1023.6    0.0   0.0   0.0   0.0   ----- 
Sat 15:30  ENE 17/ 24  20.2 10.3  1023.5    0.0   0.0   0.0   0.0   ----- 
Sat 16:00  ENE 17/ 26  20.0 11.0  1023.6    0.0   0.0   0.0   0.0   ----- 
Sat 16:30   NE 15/ 20  19.6 11.1  1024.1    0.0   0.0   0.0   0.0   ----- 
Sat 17:00   NE 19/ 24  18.9 11.2  1024.3    0.0   0.0   0.0   0.0   ----- 
Sat 17:00   NE 19/ 24  18.9 11.2  1024.3    0.0   0.0  ----   0.0   -----